createdAt,value
2019-01-04T00:02:17.920Z,21.80
2019-01-04T00:04:45.204Z,22.77
2019-01-04T00:07:12.502Z,23.18
2019-01-04T00:09:39.716Z,21.75
2019-01-04T00:12:07.005Z,23.32
2019-01-04T00:14:34.306Z,22.75
2019-01-04T00:17:01.590Z,22.87
2019-01-04T00:19:28.863Z,21.50
2019-01-04T00:21:56.172Z,22.82
2019-01-04T00:24:23.456Z,22.65
2019-01-04T00:26:50.759Z,21.90
2019-01-04T00:29:18.082Z,21.45
2019-01-04T00:31:45.370Z,22.13
2019-01-04T00:34:12.661Z,22.75
2019-01-04T00:36:39.975Z,22.42
2019-01-04T00:39:07.268Z,22.20
2019-01-04T00:41:34.542Z,22.22
2019-01-04T00:44:01.848Z,22.52
2019-01-04T00:46:29.131Z,22.87
2019-01-04T00:48:56.440Z,21.00
2019-01-04T00:51:23.725Z,21.70
2019-01-04T00:53:51.003Z,22.80
2019-01-04T00:56:22.638Z,21.45
2019-01-04T00:59:08.299Z,22.30
2019-01-04T01:01:40.151Z,22.60
2019-01-04T01:04:09.064Z,22.25
2019-01-04T01:06:54.598Z,20.30
2019-01-04T01:09:26.093Z,21.95
2019-01-04T01:12:04.888Z,20.32
2019-01-04T01:14:33.823Z,20.57
2019-01-04T01:17:02.735Z,21.65
2019-01-04T01:19:31.674Z,19.52
2019-01-04T01:22:09.536Z,18.40
2019-01-04T01:24:55.186Z,22.00
2019-01-04T01:27:33.211Z,21.65
2019-01-04T01:30:14.376Z,20.97
2019-01-04T01:32:52.376Z,20.27
2019-01-04T01:35:33.483Z,21.05
2019-01-04T01:38:17.704Z,22.32
2019-01-04T01:40:46.639Z,21.85
2019-01-04T01:43:18.257Z,21.15
2019-01-04T01:45:56.203Z,19.37
2019-01-04T01:48:24.389Z,19.77
2019-01-04T01:50:56.407Z,20.37
2019-01-04T01:53:25.346Z,20.05
2019-01-04T01:55:52.631Z,19.75
2019-01-04T01:58:19.913Z,19.73
2019-01-04T02:00:47.214Z,20.02
2019-01-04T02:03:14.429Z,19.90
2019-01-04T02:05:41.763Z,21.52
2019-01-04T02:08:09.075Z,19.12
2019-01-04T02:10:36.366Z,19.75
2019-01-04T02:13:03.691Z,18.35
2019-01-04T02:15:30.958Z,19.85
2019-01-04T02:17:58.230Z,19.67
2019-01-04T02:20:25.439Z,20.27
2019-01-04T02:22:52.750Z,18.73
2019-01-04T02:25:20.046Z,19.60
2019-01-04T02:27:47.263Z,17.75
2019-01-04T02:30:14.575Z,19.60
2019-01-04T02:32:41.850Z,18.62
2019-01-04T02:35:09.139Z,18.70
2019-01-04T02:37:36.448Z,17.60
2019-01-04T02:40:03.752Z,17.92
2019-01-04T02:42:31.060Z,17.70
2019-01-04T02:44:58.347Z,18.42
2019-01-04T02:47:25.642Z,19.15
2019-01-04T02:49:52.938Z,17.67
2019-01-04T02:52:20.155Z,18.70
2019-01-04T02:54:47.444Z,18.50
2019-01-04T02:57:14.754Z,19.02
2019-01-04T02:59:42.031Z,18.40
2019-01-04T03:02:10.502Z,18.80
2019-01-04T03:04:37.717Z,18.87
2019-01-04T03:07:05.001Z,18.92
2019-01-04T03:09:32.314Z,19.07
2019-01-04T03:11:59.596Z,19.87
2019-01-04T03:14:26.808Z,21.52
2019-01-04T03:16:54.119Z,21.80
2019-01-04T03:19:21.410Z,20.60
2019-01-04T03:21:48.688Z,21.37
2019-01-04T03:24:15.996Z,21.25
2019-01-04T03:26:43.279Z,22.22
2019-01-04T03:29:10.565Z,23.87
2019-01-04T03:31:37.885Z,21.23
2019-01-04T03:34:05.165Z,22.95
2019-01-04T03:36:32.448Z,22.82
2019-01-04T03:38:59.759Z,23.35
2019-01-04T03:41:26.959Z,24.77
2019-01-04T03:43:54.171Z,23.60
2019-01-04T03:46:21.485Z,23.02
2019-01-04T03:48:48.771Z,22.58
2019-01-04T03:51:16.089Z,22.77
2019-01-04T03:53:43.378Z,23.38
2019-01-04T03:56:10.659Z,22.90
2019-01-04T03:58:37.968Z,22.20
2019-01-04T04:01:05.252Z,22.42
2019-01-04T04:03:32.536Z,23.75
2019-01-04T04:05:59.839Z,21.57
2019-01-04T04:08:27.124Z,22.95
2019-01-04T04:10:54.412Z,24.15
2019-01-04T04:13:21.720Z,24.63
2019-01-04T04:15:49.003Z,23.73
2019-01-04T04:18:16.286Z,24.43
2019-01-04T04:20:43.506Z,25.15
2019-01-04T04:23:10.721Z,25.82
2019-01-04T04:25:38.072Z,22.65
2019-01-04T04:28:05.374Z,21.90
2019-01-04T04:30:32.593Z,24.30
2019-01-04T04:32:59.879Z,23.98
2019-01-04T04:35:27.188Z,23.12
2019-01-04T04:37:54.483Z,22.60
2019-01-04T04:40:21.772Z,23.87
2019-01-04T04:42:49.102Z,24.10
2019-01-04T04:45:16.360Z,22.20
2019-01-04T04:47:43.671Z,24.12
2019-01-04T04:50:10.943Z,24.00
2019-01-04T04:52:38.259Z,23.70
2019-01-04T04:55:05.543Z,25.10
2019-01-04T04:57:32.847Z,26.48
2019-01-04T05:00:00.375Z,25.35
2019-01-04T05:02:27.644Z,23.07
2019-01-04T05:04:54.953Z,23.70
2019-01-04T05:07:24.270Z,24.18
2019-01-04T05:09:51.631Z,21.33
2019-01-04T05:12:19.085Z,22.70
2019-01-04T05:14:46.475Z,21.70
2019-01-04T05:17:13.773Z,23.02
2019-01-04T05:19:41.173Z,22.02
2019-01-04T05:22:08.477Z,21.15
2019-01-04T05:24:35.759Z,21.85
2019-01-04T05:27:03.085Z,20.77
2019-01-04T05:29:30.448Z,19.67
2019-01-04T05:31:57.918Z,19.17
2019-01-04T05:34:25.556Z,19.90
2019-01-04T05:36:52.910Z,19.50
2019-01-04T05:39:20.195Z,20.20
2019-01-04T05:41:47.494Z,19.05
2019-01-04T05:44:14.809Z,20.72
2019-01-04T05:46:42.078Z,20.27
2019-01-04T05:49:09.779Z,20.65
2019-01-04T05:51:37.266Z,21.70
2019-01-04T05:54:04.826Z,21.25
2019-01-04T05:56:32.385Z,21.10
2019-01-04T05:59:00.821Z,22.10
2019-01-04T06:01:28.098Z,21.77
2019-01-04T06:03:55.416Z,21.52
2019-01-04T06:06:22.736Z,21.62
2019-01-04T06:08:50.010Z,23.32
2019-01-04T06:11:17.324Z,22.58
2019-01-04T06:13:44.607Z,22.75
2019-01-04T06:16:11.891Z,24.20
2019-01-04T06:18:39.213Z,24.10
2019-01-04T06:21:06.525Z,23.40
2019-01-04T06:23:33.828Z,24.15
2019-01-04T06:26:01.127Z,23.90
2019-01-04T06:28:28.417Z,23.90
2019-01-04T06:30:55.709Z,24.20
2019-01-04T06:33:23.000Z,22.85
2019-01-04T06:35:50.347Z,24.63
2019-01-04T06:38:17.603Z,23.25
2019-01-04T06:40:44.908Z,23.22
2019-01-04T06:43:12.204Z,22.10
2019-01-04T06:45:39.527Z,21.05
2019-01-04T06:48:06.815Z,20.80
2019-01-04T06:50:34.100Z,20.82
2019-01-04T06:53:01.416Z,20.72
2019-01-04T06:55:48.358Z,21.15
2019-01-04T06:58:15.658Z,20.60
2019-01-04T07:00:42.871Z,20.48
2019-01-04T07:03:10.647Z,20.52
2019-01-04T07:05:37.938Z,20.95
2019-01-04T07:08:05.222Z,19.95
2019-01-04T07:10:32.532Z,21.10
2019-01-04T07:12:59.806Z,20.40
2019-01-04T07:15:27.102Z,22.55
2019-01-04T07:17:54.403Z,21.57
2019-01-04T07:20:21.687Z,21.27
2019-01-04T07:22:48.993Z,22.62
2019-01-04T07:25:16.284Z,20.43
2019-01-04T07:27:43.603Z,21.70
2019-01-04T07:30:10.887Z,23.22
2019-01-04T07:32:38.176Z,22.30
2019-01-04T07:35:05.485Z,22.02
2019-01-04T07:37:32.695Z,21.73
2019-01-04T07:40:00.030Z,23.30
2019-01-04T07:42:27.312Z,22.65
2019-01-04T07:44:54.608Z,24.30
2019-01-04T07:47:21.919Z,22.45
2019-01-04T07:49:49.215Z,23.27
2019-01-04T07:52:16.504Z,24.37
2019-01-04T07:54:43.862Z,23.98
2019-01-04T07:57:11.143Z,24.77
2019-01-04T07:59:38.437Z,23.98
2019-01-04T08:02:25.651Z,24.35
2019-01-04T08:04:52.972Z,23.70
2019-01-04T08:07:20.253Z,22.52
2019-01-04T08:09:47.545Z,23.90
2019-01-04T08:12:14.871Z,23.50
2019-01-04T08:14:42.163Z,22.07
2019-01-04T08:17:09.445Z,21.50
2019-01-04T08:19:36.764Z,21.20
2019-01-04T08:22:04.047Z,23.73
2019-01-04T08:24:31.337Z,24.52
2019-01-04T08:26:58.648Z,25.23
2019-01-04T08:29:25.952Z,24.30
2019-01-04T08:31:53.235Z,24.75
2019-01-04T08:34:20.559Z,26.77
2019-01-04T08:36:47.904Z,32.42
2019-01-04T08:39:15.123Z,33.25
2019-01-04T08:41:42.439Z,27.93
2019-01-04T08:44:09.710Z,27.15
2019-01-04T08:46:36.945Z,24.75
2019-01-04T08:49:04.219Z,26.35
2019-01-04T08:51:31.459Z,24.32
2019-01-04T08:53:59.733Z,23.90
2019-01-04T08:56:28.487Z,24.20
2019-01-04T08:58:55.782Z,22.73
2019-01-04T09:01:22.990Z,23.15
2019-01-04T09:03:50.266Z,21.90
2019-01-04T09:06:17.508Z,22.67
2019-01-04T09:08:44.823Z,20.97
2019-01-04T09:11:12.109Z,21.20
2019-01-04T09:13:39.488Z,23.10
2019-01-04T09:16:06.771Z,22.60
2019-01-04T09:18:34.066Z,20.60
2019-01-04T09:21:01.288Z,16.23
2019-01-04T09:23:28.575Z,19.07
2019-01-04T09:25:55.883Z,20.92
2019-01-04T09:28:23.176Z,22.45
2019-01-04T09:30:50.489Z,23.98
2019-01-04T09:33:17.779Z,23.42
2019-01-04T09:35:45.067Z,23.22
2019-01-04T09:38:13.244Z,18.40
2019-01-04T09:40:40.536Z,21.95
2019-01-04T09:43:07.825Z,23.15
2019-01-04T09:45:35.128Z,23.20
2019-01-04T09:48:02.420Z,20.27
2019-01-04T09:50:29.708Z,20.82
2019-01-04T09:52:57.006Z,22.65
2019-01-04T09:55:24.311Z,22.93
2019-01-04T09:57:51.631Z,22.17
2019-01-04T10:00:18.918Z,25.20
2019-01-04T10:02:46.240Z,22.82
2019-01-04T10:05:13.522Z,23.15
2019-01-04T10:07:40.809Z,22.90
2019-01-04T10:10:08.909Z,20.52
2019-01-04T10:12:36.172Z,19.92
2019-01-04T10:15:04.890Z,19.60
2019-01-04T10:17:32.178Z,20.30
2019-01-04T10:19:59.496Z,20.08
2019-01-04T10:22:26.771Z,19.95
2019-01-04T10:24:54.069Z,19.95
2019-01-04T10:27:21.388Z,18.25
2019-01-04T10:29:48.683Z,14.95
2019-01-04T10:32:15.971Z,18.30
2019-01-04T10:34:43.264Z,17.67
2019-01-04T10:37:10.574Z,18.25
2019-01-04T10:39:37.846Z,19.30
2019-01-04T10:42:05.046Z,19.60
2019-01-04T10:44:32.302Z,17.42
2019-01-04T10:46:59.594Z,18.67
2019-01-04T10:49:26.899Z,17.70
2019-01-04T10:51:54.224Z,14.25
2019-01-04T10:54:21.508Z,15.28
2019-01-04T10:56:48.791Z,14.83
2019-01-04T10:59:16.119Z,15.28
2019-01-04T11:01:44.838Z,14.18
2019-01-04T11:04:12.106Z,15.35
2019-01-04T11:06:39.330Z,16.23
2019-01-04T11:09:07.436Z,16.93
2019-01-04T11:11:34.761Z,16.50
2019-01-04T11:14:02.043Z,20.10
2019-01-04T11:16:29.349Z,19.20
2019-01-04T11:18:56.634Z,19.27
2019-01-04T11:21:23.938Z,19.45
2019-01-04T11:23:55.434Z,18.52
2019-01-04T11:26:27.370Z,21.70
2019-01-04T11:29:02.053Z,19.17
2019-01-04T11:31:36.711Z,19.40
2019-01-04T11:34:05.629Z,17.60
2019-01-04T11:36:34.539Z,18.60
2019-01-04T11:39:12.429Z,16.52
2019-01-04T11:41:41.329Z,16.97
2019-01-04T11:44:10.167Z,16.32
2019-01-04T11:46:51.086Z,15.00
2019-01-04T11:49:26.068Z,16.30
2019-01-04T11:51:54.934Z,16.27
2019-01-04T11:54:22.219Z,15.78
2019-01-04T11:56:49.507Z,14.78
2019-01-04T11:59:16.811Z,13.83
2019-01-04T12:01:44.097Z,16.35
2019-01-04T12:04:11.379Z,14.43
2019-01-04T12:06:38.688Z,13.58
2019-01-04T12:09:06.339Z,13.70
2019-01-04T12:11:33.622Z,14.25
2019-01-04T12:14:00.941Z,13.45
2019-01-04T12:16:28.211Z,13.48
2019-01-04T12:18:55.443Z,13.13
2019-01-04T12:21:22.733Z,14.25
2019-01-04T12:23:52.643Z,12.60
2019-01-04T12:26:20.667Z,15.43
2019-01-04T12:28:55.195Z,14.07
2019-01-04T12:31:33.183Z,16.12
2019-01-04T12:34:16.426Z,14.70
2019-01-04T12:36:49.575Z,14.28
2019-01-04T12:39:27.613Z,15.03
2019-01-04T12:42:03.564Z,16.12
2019-01-04T12:44:30.909Z,14.70
2019-01-04T12:46:58.183Z,16.05
2019-01-04T12:49:25.490Z,16.20
2019-01-04T12:51:52.770Z,17.57
2019-01-04T12:54:20.042Z,16.48
2019-01-04T12:56:47.359Z,17.05
2019-01-04T12:59:14.643Z,15.93
2019-01-04T13:01:41.922Z,15.08
2019-01-04T13:04:09.229Z,15.60
2019-01-04T13:06:36.522Z,14.50
2019-01-04T13:09:04.607Z,15.98
2019-01-04T13:11:31.969Z,14.05
2019-01-04T13:13:59.639Z,15.48
2019-01-04T13:16:26.931Z,15.70
2019-01-04T13:18:54.248Z,15.53
2019-01-04T13:21:21.536Z,15.53
2019-01-04T13:23:48.817Z,15.72
2019-01-04T13:26:16.128Z,15.05
2019-01-04T13:28:43.404Z,16.10
2019-01-04T13:31:10.724Z,15.38
2019-01-04T13:33:38.028Z,15.90
2019-01-04T13:36:05.407Z,17.35
2019-01-04T13:38:32.717Z,15.40
2019-01-04T13:41:00.010Z,16.15
2019-01-04T13:43:27.663Z,16.30
2019-01-04T13:45:54.935Z,15.28
2019-01-04T13:48:22.248Z,14.68
2019-01-04T13:50:49.526Z,16.67
2019-01-04T13:53:16.817Z,16.77
2019-01-04T13:55:44.124Z,16.62
2019-01-04T13:58:11.409Z,16.93
2019-01-04T14:00:38.714Z,17.30
2019-01-04T14:03:06.028Z,17.02
2019-01-04T14:05:33.310Z,17.27
2019-01-04T14:08:00.519Z,17.10
2019-01-04T14:10:27.839Z,18.25
2019-01-04T14:12:55.128Z,17.20
2019-01-04T14:15:22.483Z,17.92
2019-01-04T14:17:49.686Z,17.75
2019-01-04T14:20:16.915Z,17.73
2019-01-04T14:22:44.139Z,18.60
2019-01-04T14:25:11.425Z,18.55
2019-01-04T14:27:38.723Z,17.70
2019-01-04T14:30:07.697Z,19.05
2019-01-04T14:32:34.966Z,18.60
2019-01-04T14:35:02.195Z,18.02
2019-01-04T14:37:29.484Z,18.77
2019-01-04T14:39:56.788Z,19.37
2019-01-04T14:42:24.063Z,18.35
2019-01-04T14:44:51.343Z,18.15
2019-01-04T14:47:18.642Z,18.67
2019-01-04T14:49:45.926Z,19.50
2019-01-04T14:52:13.230Z,19.52
2019-01-04T14:54:40.515Z,21.82
2019-01-04T14:57:07.819Z,19.27
2019-01-04T14:59:35.112Z,19.15
2019-01-04T15:02:02.386Z,20.25
2019-01-04T15:04:29.618Z,19.30
2019-01-04T15:06:56.904Z,19.80
2019-01-04T15:09:24.186Z,19.90
2019-01-04T15:11:51.485Z,21.97
2019-01-04T15:14:18.722Z,18.92
2019-01-04T15:16:46.004Z,19.25
2019-01-04T15:19:13.281Z,19.65
2019-01-04T15:21:40.591Z,20.25
2019-01-04T15:24:07.874Z,18.37
2019-01-04T15:26:35.189Z,18.40
2019-01-04T15:29:02.475Z,18.57
2019-01-04T15:31:29.759Z,20.15
2019-01-04T15:33:57.067Z,20.55
2019-01-04T15:36:24.364Z,20.32
2019-01-04T15:38:51.672Z,20.43
2019-01-04T15:41:18.961Z,23.25
2019-01-04T15:43:46.253Z,23.62
2019-01-04T15:46:13.560Z,22.20
2019-01-04T15:48:40.843Z,22.10
2019-01-04T15:51:08.153Z,22.00
2019-01-04T15:53:35.538Z,21.90
2019-01-04T15:56:02.771Z,22.75
2019-01-04T15:58:30.057Z,22.77
2019-01-04T16:00:57.359Z,20.12
2019-01-04T16:03:24.639Z,21.95
2019-01-04T16:05:51.927Z,22.20
2019-01-04T16:08:19.226Z,22.65
2019-01-04T16:10:46.504Z,22.20
2019-01-04T16:13:13.824Z,21.12
2019-01-04T16:15:41.113Z,22.10
2019-01-04T16:18:08.455Z,20.68
2019-01-04T16:20:35.753Z,22.48
2019-01-04T16:23:02.958Z,21.10
2019-01-04T16:25:30.165Z,22.00
2019-01-04T16:27:57.476Z,21.60
2019-01-04T16:30:24.767Z,23.47
2019-01-04T16:32:52.046Z,23.73
2019-01-04T16:35:19.358Z,23.77
2019-01-04T16:37:46.564Z,23.55
2019-01-04T16:40:13.920Z,24.12
2019-01-04T16:42:41.227Z,25.50
2019-01-04T16:45:08.521Z,24.40
2019-01-04T16:47:35.786Z,23.98
2019-01-04T16:50:04.159Z,26.48
2019-01-04T16:52:31.467Z,24.67
2019-01-04T16:54:58.755Z,24.67
2019-01-04T16:57:26.040Z,25.23
2019-01-04T16:59:53.347Z,26.70
2019-01-04T17:02:20.638Z,26.30
2019-01-04T17:04:56.803Z,26.42
2019-01-04T17:07:24.659Z,28.17
2019-01-04T17:09:51.951Z,29.02
2019-01-04T17:12:19.254Z,29.72
2019-01-04T17:14:46.536Z,28.27
2019-01-04T17:17:13.819Z,26.73
2019-01-04T17:19:41.131Z,28.15
2019-01-04T17:22:08.419Z,27.93
2019-01-04T17:24:35.702Z,29.23
2019-01-04T17:27:02.939Z,29.12
2019-01-04T17:29:30.224Z,28.62
2019-01-04T17:31:57.516Z,28.45
2019-01-04T17:34:24.814Z,28.62
2019-01-04T17:36:52.014Z,30.05
2019-01-04T17:39:19.224Z,27.65
2019-01-04T17:41:46.539Z,31.02
2019-01-04T17:44:13.814Z,30.65
2019-01-04T17:46:41.101Z,30.05
2019-01-04T17:49:08.408Z,30.15
2019-01-04T17:51:35.688Z,30.15
2019-01-04T17:54:02.975Z,31.93
2019-01-04T17:56:30.284Z,30.85
2019-01-04T17:58:57.558Z,28.73
2019-01-04T18:01:24.788Z,28.23
2019-01-04T18:03:52.080Z,30.77
2019-01-04T18:06:19.370Z,29.00
2019-01-04T18:08:46.679Z,28.62
2019-01-04T18:11:15.058Z,31.50
2019-01-04T18:13:42.442Z,30.62
2019-01-04T18:16:09.746Z,29.75
2019-01-04T18:18:37.042Z,29.05
2019-01-04T18:21:04.378Z,27.93
2019-01-04T18:23:31.675Z,28.35
2019-01-04T18:25:58.887Z,29.45
2019-01-04T18:28:26.172Z,27.07
2019-01-04T18:30:53.479Z,28.00
2019-01-04T18:33:20.766Z,26.65
2019-01-04T18:35:48.038Z,28.90
2019-01-04T18:38:15.342Z,28.30
2019-01-04T18:40:42.626Z,27.20
2019-01-04T18:43:09.909Z,28.25
2019-01-04T18:45:37.215Z,28.35
2019-01-04T18:48:04.488Z,27.67
2019-01-04T18:50:32.048Z,27.42
2019-01-04T18:52:59.341Z,26.62
2019-01-04T18:55:26.619Z,28.10
2019-01-04T18:57:53.860Z,25.40
2019-01-04T19:00:21.144Z,27.45
2019-01-04T19:02:48.431Z,27.93
2019-01-04T19:05:15.729Z,26.45
2019-01-04T19:07:43.015Z,26.70
2019-01-04T19:10:10.300Z,26.30
2019-01-04T19:12:37.645Z,28.23
2019-01-04T19:15:06.499Z,29.75
2019-01-04T19:17:33.803Z,27.42
2019-01-04T19:20:01.092Z,26.50
2019-01-04T19:22:28.383Z,26.80
2019-01-04T19:24:55.681Z,26.52
2019-01-04T19:27:22.900Z,27.32
2019-01-04T19:29:50.177Z,26.65
2019-01-04T19:32:17.488Z,26.17
2019-01-04T19:34:44.766Z,27.40
2019-01-04T19:37:12.070Z,25.82
2019-01-04T19:39:39.286Z,25.48
2019-01-04T19:42:06.562Z,24.85
2019-01-04T19:44:33.798Z,25.45
2019-01-04T19:47:01.084Z,24.65
2019-01-04T19:49:28.391Z,24.12
2019-01-04T19:51:55.691Z,23.30
2019-01-04T19:54:22.971Z,23.52
2019-01-04T19:56:50.255Z,22.32
2019-01-04T19:59:17.559Z,21.93
2019-01-04T20:01:44.853Z,23.27
2019-01-04T20:04:12.087Z,21.45
2019-01-04T20:06:59.184Z,22.93
2019-01-04T20:10:04.747Z,25.57
2019-01-04T20:13:09.044Z,23.92
2019-01-04T20:15:54.783Z,26.68
2019-01-04T20:18:40.302Z,25.97
2019-01-04T20:21:12.213Z,26.05
2019-01-04T20:23:41.134Z,26.02
2019-01-04T20:26:10.095Z,26.00
2019-01-04T20:28:39.015Z,27.30
2019-01-04T20:31:10.827Z,27.15
2019-01-04T20:33:42.736Z,26.55
2019-01-04T20:36:11.668Z,25.65
2019-01-04T20:38:46.546Z,23.95
2019-01-04T20:41:24.497Z,25.00
2019-01-04T20:43:59.531Z,23.85
2019-01-04T20:46:40.863Z,26.12
2019-01-04T20:49:26.011Z,28.10
2019-01-04T20:51:57.434Z,28.62
2019-01-04T20:54:31.944Z,26.25
2019-01-04T20:57:00.895Z,24.23
2019-01-04T20:59:45.176Z,29.05
2019-01-04T21:02:19.851Z,27.82
2019-01-04T21:04:54.585Z,25.08
2019-01-04T21:07:39.902Z,26.97
2019-01-04T21:10:23.899Z,29.63
2019-01-04T21:12:52.819Z,28.02
2019-01-04T21:15:30.951Z,27.67
2019-01-04T21:18:06.034Z,27.77
2019-01-04T21:20:43.911Z,28.42
2019-01-04T21:23:15.980Z,25.62
2019-01-04T21:25:47.756Z,29.55
2019-01-04T21:28:25.715Z,30.25
2019-01-04T21:31:10.960Z,29.50
2019-01-04T21:33:45.748Z,25.17
2019-01-04T21:36:17.886Z,30.25
2019-01-04T21:39:03.351Z,35.40
2019-01-04T21:41:41.197Z,27.58
2019-01-04T21:44:26.283Z,26.48
2019-01-04T21:46:58.401Z,31.20
2019-01-04T21:49:42.406Z,27.40
2019-01-04T21:52:20.146Z,27.42
2019-01-04T21:55:05.503Z,26.50
2019-01-04T21:57:51.144Z,29.05
2019-01-04T22:00:25.775Z,26.25
2019-01-04T22:02:54.727Z,29.35
2019-01-04T22:05:29.559Z,26.77
2019-01-04T22:08:13.833Z,29.12
2019-01-04T22:10:42.773Z,28.47
2019-01-04T22:13:20.861Z,31.77
2019-01-04T22:16:01.994Z,29.30
2019-01-04T22:18:49.247Z,25.70
2019-01-04T22:21:34.730Z,28.50
2019-01-04T22:24:09.476Z,26.77
2019-01-04T22:26:41.392Z,26.70
2019-01-04T22:29:13.344Z,26.90
2019-01-04T22:31:58.756Z,22.48
2019-01-04T22:34:27.684Z,24.00
2019-01-04T22:37:15.052Z,24.12
2019-01-04T22:39:43.975Z,23.25
2019-01-04T22:42:21.972Z,23.80
2019-01-04T22:44:50.901Z,22.42
2019-01-04T22:47:22.748Z,23.05
2019-01-04T22:49:57.536Z,27.55
2019-01-04T22:52:26.464Z,25.12
2019-01-04T22:54:58.386Z,24.05
2019-01-04T22:57:30.311Z,23.50
2019-01-04T23:00:17.327Z,26.25
2019-01-04T23:02:48.821Z,26.02
2019-01-04T23:05:35.803Z,28.73
2019-01-04T23:08:10.521Z,31.60
2019-01-04T23:10:39.375Z,34.92
2019-01-04T23:13:26.255Z,28.98
2019-01-04T23:16:13.172Z,28.07
2019-01-04T23:18:42.123Z,63.68
2019-01-04T23:21:29.447Z,36.85
2019-01-04T23:23:58.399Z,33.65
2019-01-04T23:26:27.348Z,33.65
2019-01-04T23:29:12.755Z,41.50
2019-01-04T23:31:44.460Z,38.75
2019-01-04T23:34:31.615Z,30.00
2019-01-04T23:37:17.053Z,29.45
2019-01-04T23:39:55.025Z,33.90
2019-01-04T23:42:36.007Z,37.67
2019-01-04T23:45:08.179Z,28.45
2019-01-04T23:47:40.058Z,28.15
2019-01-04T23:50:08.902Z,28.98
2019-01-04T23:52:49.790Z,34.92
2019-01-04T23:55:24.995Z,32.42
2019-01-04T23:58:10.524Z,27.20
